sensor_id;sensor_type;location;lat;lon;timestamp;temperature;humidity
66586;SHT30;53444;45.822;16.092;2023-04-24T00:02:20;15.22;63.17
66586;SHT30;53444;45.822;16.092;2023-04-24T00:04:47;14.89;64.52
66586;SHT30;53444;45.822;16.092;2023-04-24T00:07:15;14.80;65.09
66586;SHT30;53444;45.822;16.092;2023-04-24T00:09:42;14.83;64.91
66586;SHT30;53444;45.822;16.092;2023-04-24T00:12:09;14.55;66.72
66586;SHT30;53444;45.822;16.092;2023-04-24T00:14:35;14.69;66.23
66586;SHT30;53444;45.822;16.092;2023-04-24T00:17:02;14.71;66.22
66586;SHT30;53444;45.822;16.092;2023-04-24T00:19:29;14.56;66.55
66586;SHT30;53444;45.822;16.092;2023-04-24T00:21:55;14.51;66.85
66586;SHT30;53444;45.822;16.092;2023-04-24T00:24:23;14.41;67.15
66586;SHT30;53444;45.822;16.092;2023-04-24T00:26:50;14.46;66.55
66586;SHT30;53444;45.822;16.092;2023-04-24T00:29:16;14.54;66.17
66586;SHT30;53444;45.822;16.092;2023-04-24T00:31:43;14.44;66.41
66586;SHT30;53444;45.822;16.092;2023-04-24T00:34:09;14.52;66.01
66586;SHT30;53444;45.822;16.092;2023-04-24T00:36:37;14.55;65.55
66586;SHT30;53444;45.822;16.092;2023-04-24T00:39:03;14.65;65.21
66586;SHT30;53444;45.822;16.092;2023-04-24T00:41:31;14.69;64.89
66586;SHT30;53444;45.822;16.092;2023-04-24T00:43:58;14.68;65.16
66586;SHT30;53444;45.822;16.092;2023-04-24T00:46:24;14.75;64.75
66586;SHT30;53444;45.822;16.092;2023-04-24T00:48:51;14.77;65.04
66586;SHT30;53444;45.822;16.092;2023-04-24T00:51:18;14.77;65.38
66586;SHT30;53444;45.822;16.092;2023-04-24T00:53:45;14.75;65.81
66586;SHT30;53444;45.822;16.092;2023-04-24T00:56:12;14.86;65.24
66586;SHT30;53444;45.822;16.092;2023-04-24T00:58:40;14.90;65.05
66586;SHT30;53444;45.822;16.092;2023-04-24T01:01:07;14.95;65.20
66586;SHT30;53444;45.822;16.092;2023-04-24T01:03:34;14.90;65.58
66586;SHT30;53444;45.822;16.092;2023-04-24T01:06:02;14.83;65.81
66586;SHT30;53444;45.822;16.092;2023-04-24T01:08:30;14.97;65.19
66586;SHT30;53444;45.822;16.092;2023-04-24T01:10:57;14.93;64.87
66586;SHT30;53444;45.822;16.092;2023-04-24T01:13:24;14.95;65.06
66586;SHT30;53444;45.822;16.092;2023-04-24T01:15:52;14.97;64.58
66586;SHT30;53444;45.822;16.092;2023-04-24T01:18:18;14.99;64.96
66586;SHT30;53444;45.822;16.092;2023-04-24T01:20:49;14.93;65.43
66586;SHT30;53444;45.822;16.092;2023-04-24T01:23:19;14.92;66.29
66586;SHT30;53444;45.822;16.092;2023-04-24T01:25:45;14.87;66.56
66586;SHT30;53444;45.822;16.092;2023-04-24T01:28:12;14.79;68.01
66586;SHT30;53444;45.822;16.092;2023-04-24T01:30:39;14.80;68.24
66586;SHT30;53444;45.822;16.092;2023-04-24T01:33:06;14.83;67.81
66586;SHT30;53444;45.822;16.092;2023-04-24T01:35:33;14.86;68.14
66586;SHT30;53444;45.822;16.092;2023-04-24T01:38:01;14.82;67.44
66586;SHT30;53444;45.822;16.092;2023-04-24T01:40:29;14.87;67.24
66586;SHT30;53444;45.822;16.092;2023-04-24T01:42:57;14.89;67.17
66586;SHT30;53444;45.822;16.092;2023-04-24T01:45:24;14.85;67.32
66586;SHT30;53444;45.822;16.092;2023-04-24T01:47:51;14.73;67.96
66586;SHT30;53444;45.822;16.092;2023-04-24T01:50:18;14.71;68.13
66586;SHT30;53444;45.822;16.092;2023-04-24T01:52:45;14.55;68.82
66586;SHT30;53444;45.822;16.092;2023-04-24T01:55:11;14.46;69.85
66586;SHT30;53444;45.822;16.092;2023-04-24T01:57:39;14.49;69.96
66586;SHT30;53444;45.822;16.092;2023-04-24T02:00:07;14.42;70.20
66586;SHT30;53444;45.822;16.092;2023-04-24T02:02:34;14.35;70.36
66586;SHT30;53444;45.822;16.092;2023-04-24T02:05:00;14.39;70.07
66586;SHT30;53444;45.822;16.092;2023-04-24T02:07:28;14.36;69.94
66586;SHT30;53444;45.822;16.092;2023-04-24T02:09:54;14.38;69.69
66586;SHT30;53444;45.822;16.092;2023-04-24T02:12:21;14.28;70.03
66586;SHT30;53444;45.822;16.092;2023-04-24T02:14:49;14.15;70.70
66586;SHT30;53444;45.822;16.092;2023-04-24T02:17:16;13.56;73.03
66586;SHT30;53444;45.822;16.092;2023-04-24T02:19:42;13.44;73.39
66586;SHT30;53444;45.822;16.092;2023-04-24T02:22:09;13.53;73.22
66586;SHT30;53444;45.822;16.092;2023-04-24T02:24:36;13.59;73.07
66586;SHT30;53444;45.822;16.092;2023-04-24T02:27:03;13.49;73.63
66586;SHT30;53444;45.822;16.092;2023-04-24T02:29:30;13.47;74.06
66586;SHT30;53444;45.822;16.092;2023-04-24T02:31:58;13.40;74.57
66586;SHT30;53444;45.822;16.092;2023-04-24T02:34:26;13.36;75.11
66586;SHT30;53444;45.822;16.092;2023-04-24T02:36:52;13.35;75.42
66586;SHT30;53444;45.822;16.092;2023-04-24T02:39:20;13.22;76.20
66586;SHT30;53444;45.822;16.092;2023-04-24T02:41:46;13.27;76.56
66586;SHT30;53444;45.822;16.092;2023-04-24T02:44:13;13.32;76.65
66586;SHT30;53444;45.822;16.092;2023-04-24T02:46:40;13.23;77.19
66586;SHT30;53444;45.822;16.092;2023-04-24T02:49:08;13.23;77.29
66586;SHT30;53444;45.822;16.092;2023-04-24T02:51:37;13.11;78.10
66586;SHT30;53444;45.822;16.092;2023-04-24T02:54:07;13.22;77.94
66586;SHT30;53444;45.822;16.092;2023-04-24T02:56:33;13.08;78.63
66586;SHT30;53444;45.822;16.092;2023-04-24T02:59:00;13.13;78.60
66586;SHT30;53444;45.822;16.092;2023-04-24T03:03:57;13.05;79.16
66586;SHT30;53444;45.822;16.092;2023-04-24T03:06:25;13.02;79.46
66586;SHT30;53444;45.822;16.092;2023-04-24T03:08:52;13.01;79.42
66586;SHT30;53444;45.822;16.092;2023-04-24T03:11:19;13.03;79.41
66586;SHT30;53444;45.822;16.092;2023-04-24T03:13:45;12.87;79.75
66586;SHT30;53444;45.822;16.092;2023-04-24T03:16:12;12.93;79.98
66586;SHT30;53444;45.822;16.092;2023-04-24T03:18:39;12.78;80.29
66586;SHT30;53444;45.822;16.092;2023-04-24T03:21:05;12.85;80.15
66586;SHT30;53444;45.822;16.092;2023-04-24T03:38:59;12.95;79.60
66586;SHT30;53444;45.822;16.092;2023-04-24T03:41:25;12.91;79.86
66586;SHT30;53444;45.822;16.092;2023-04-24T03:43:52;12.92;79.73
66586;SHT30;53444;45.822;16.092;2023-04-24T03:46:18;12.99;79.32
66586;SHT30;53444;45.822;16.092;2023-04-24T03:48:45;13.08;78.97
66586;SHT30;53444;45.822;16.092;2023-04-24T03:51:12;12.93;79.51
66586;SHT30;53444;45.822;16.092;2023-04-24T03:53:38;13.11;78.99
66586;SHT30;53444;45.822;16.092;2023-04-24T03:56:07;13.05;79.17
66586;SHT30;53444;45.822;16.092;2023-04-24T03:58:33;13.13;78.66
66586;SHT30;53444;45.822;16.092;2023-04-24T04:01:00;13.11;78.80
66586;SHT30;53444;45.822;16.092;2023-04-24T04:03:28;13.13;79.01
66586;SHT30;53444;45.822;16.092;2023-04-24T04:05:54;13.18;78.90
66586;SHT30;53444;45.822;16.092;2023-04-24T04:08:21;13.29;78.69
66586;SHT30;53444;45.822;16.092;2023-04-24T04:10:47;13.24;78.73
66586;SHT30;53444;45.822;16.092;2023-04-24T04:13:15;13.42;78.23
66586;SHT30;53444;45.822;16.092;2023-04-24T04:15:43;13.49;77.84
66586;SHT30;53444;45.822;16.092;2023-04-24T04:18:09;13.47;77.93
66586;SHT30;53444;45.822;16.092;2023-04-24T04:20:36;13.47;78.53
66586;SHT30;53444;45.822;16.092;2023-04-24T04:23:03;13.49;78.21
66586;SHT30;53444;45.822;16.092;2023-04-24T04:25:30;13.53;77.96
66586;SHT30;53444;45.822;16.092;2023-04-24T04:27:56;13.59;77.67
66586;SHT30;53444;45.822;16.092;2023-04-24T04:30:26;13.69;77.51
66586;SHT30;53444;45.822;16.092;2023-04-24T04:32:54;13.78;77.21
66586;SHT30;53444;45.822;16.092;2023-04-24T04:35:21;13.83;77.17
66586;SHT30;53444;45.822;16.092;2023-04-24T04:37:48;13.90;77.64
66586;SHT30;53444;45.822;16.092;2023-04-24T04:40:15;13.88;78.12
66586;SHT30;53444;45.822;16.092;2023-04-24T04:42:41;13.93;78.41
66586;SHT30;53444;45.822;16.092;2023-04-24T04:45:11;13.95;78.40
66586;SHT30;53444;45.822;16.092;2023-04-24T04:47:39;13.94;78.45
66586;SHT30;53444;45.822;16.092;2023-04-24T04:50:06;13.94;78.68
66586;SHT30;53444;45.822;16.092;2023-04-24T04:52:33;13.98;78.58
66586;SHT30;53444;45.822;16.092;2023-04-24T04:55:00;14.04;78.45
66586;SHT30;53444;45.822;16.092;2023-04-24T04:57:28;14.05;78.09
66586;SHT30;53444;45.822;16.092;2023-04-24T04:59:55;14.10;77.55
66586;SHT30;53444;45.822;16.092;2023-04-24T05:02:23;14.07;77.70
66586;SHT30;53444;45.822;16.092;2023-04-24T05:04:52;14.11;78.14
66586;SHT30;53444;45.822;16.092;2023-04-24T05:07:19;14.10;77.87
66586;SHT30;53444;45.822;16.092;2023-04-24T05:09:50;14.14;77.76
66586;SHT30;53444;45.822;16.092;2023-04-24T05:12:17;14.21;77.47
66586;SHT30;53444;45.822;16.092;2023-04-24T05:14:47;14.22;77.07
66586;SHT30;53444;45.822;16.092;2023-04-24T05:17:13;14.29;76.95
66586;SHT30;53444;45.822;16.092;2023-04-24T05:19:40;14.13;78.16
66586;SHT30;53444;45.822;16.092;2023-04-24T05:22:10;14.15;77.38
66586;SHT30;53444;45.822;16.092;2023-04-24T05:24:39;13.93;76.05
66586;SHT30;53444;45.822;16.092;2023-04-24T05:27:06;13.94;77.05
66586;SHT30;53444;45.822;16.092;2023-04-24T05:29:33;13.85;77.47
66586;SHT30;53444;45.822;16.092;2023-04-24T05:32:00;13.70;78.48
66586;SHT30;53444;45.822;16.092;2023-04-24T05:34:26;13.74;79.15
66586;SHT30;53444;45.822;16.092;2023-04-24T05:36:53;13.81;78.91
66586;SHT30;53444;45.822;16.092;2023-04-24T05:39:21;13.69;79.88
66586;SHT30;53444;45.822;16.092;2023-04-24T05:41:50;13.62;80.10
66586;SHT30;53444;45.822;16.092;2023-04-24T05:44:16;13.87;80.76
66586;SHT30;53444;45.822;16.092;2023-04-24T05:46:43;14.04;81.17
66586;SHT30;53444;45.822;16.092;2023-04-24T05:49:10;14.11;80.78
66586;SHT30;53444;45.822;16.092;2023-04-24T05:51:36;13.94;80.74
66586;SHT30;53444;45.822;16.092;2023-04-24T05:54:04;14.10;81.94
66586;SHT30;53444;45.822;16.092;2023-04-24T05:56:32;14.29;82.25
66586;SHT30;53444;45.822;16.092;2023-04-24T05:58:59;14.38;80.99
66586;SHT30;53444;45.822;16.092;2023-04-24T06:01:26;14.36;81.51
66586;SHT30;53444;45.822;16.092;2023-04-24T06:03:52;14.35;82.91
66586;SHT30;53444;45.822;16.092;2023-04-24T06:06:19;13.95;84.09
66586;SHT30;53444;45.822;16.092;2023-04-24T06:08:46;13.53;85.40
66586;SHT30;53444;45.822;16.092;2023-04-24T06:11:12;13.75;85.64
66586;SHT30;53444;45.822;16.092;2023-04-24T06:13:40;13.71;84.63
66586;SHT30;53444;45.822;16.092;2023-04-24T06:16:07;13.73;86.23
66586;SHT30;53444;45.822;16.092;2023-04-24T06:18:34;13.81;86.75
66586;SHT30;53444;45.822;16.092;2023-04-24T06:21:00;13.71;85.54
66586;SHT30;53444;45.822;16.092;2023-04-24T06:23:27;13.59;86.29
66586;SHT30;53444;45.822;16.092;2023-04-24T06:25:54;13.73;86.77
66586;SHT30;53444;45.822;16.092;2023-04-24T06:28:21;13.88;86.21
66586;SHT30;53444;45.822;16.092;2023-04-24T06:30:49;13.87;86.19
66586;SHT30;53444;45.822;16.092;2023-04-24T06:33:16;13.63;85.69
66586;SHT30;53444;45.822;16.092;2023-04-24T06:35:42;13.81;87.63
66586;SHT30;53444;45.822;16.092;2023-04-24T06:38:09;13.97;87.51
66586;SHT30;53444;45.822;16.092;2023-04-24T06:40:36;14.07;86.34
66586;SHT30;53444;45.822;16.092;2023-04-24T06:43:03;14.26;87.34
66586;SHT30;53444;45.822;16.092;2023-04-24T06:45:30;14.28;89.03
66586;SHT30;53444;45.822;16.092;2023-04-24T06:47:58;14.38;88.90
66586;SHT30;53444;45.822;16.092;2023-04-24T06:50:24;14.45;88.58
66586;SHT30;53444;45.822;16.092;2023-04-24T06:52:51;14.38;87.85
66586;SHT30;53444;45.822;16.092;2023-04-24T06:55:18;14.42;87.31
66586;SHT30;53444;45.822;16.092;2023-04-24T06:57:44;14.41;87.85
66586;SHT30;53444;45.822;16.092;2023-04-24T07:00:12;14.52;87.27
66586;SHT30;53444;45.822;16.092;2023-04-24T07:02:39;14.52;86.95
66586;SHT30;53444;45.822;16.092;2023-04-24T07:05:07;14.54;87.19
66586;SHT30;53444;45.822;16.092;2023-04-24T07:07:34;14.48;86.54
66586;SHT30;53444;45.822;16.092;2023-04-24T07:10:03;14.38;86.66
66586;SHT30;53444;45.822;16.092;2023-04-24T07:12:30;14.49;86.68
66586;SHT30;53444;45.822;16.092;2023-04-24T07:14:57;14.56;86.43
66586;SHT30;53444;45.822;16.092;2023-04-24T07:17:24;14.62;85.60
66586;SHT30;53444;45.822;16.092;2023-04-24T07:19:51;14.69;85.28
66586;SHT30;53444;45.822;16.092;2023-04-24T07:22:19;14.77;85.26
66586;SHT30;53444;45.822;16.092;2023-04-24T07:24:45;14.83;85.28
66586;SHT30;53444;45.822;16.092;2023-04-24T07:27:12;14.93;84.13
66586;SHT30;53444;45.822;16.092;2023-04-24T07:29:40;14.93;84.10
66586;SHT30;53444;45.822;16.092;2023-04-24T07:32:06;14.89;83.33
66586;SHT30;53444;45.822;16.092;2023-04-24T07:34:34;14.92;82.44
66586;SHT30;53444;45.822;16.092;2023-04-24T07:37:01;14.77;82.00
66586;SHT30;53444;45.822;16.092;2023-04-24T07:39:29;14.52;82.34
66586;SHT30;53444;45.822;16.092;2023-04-24T07:41:56;14.66;82.06
66586;SHT30;53444;45.822;16.092;2023-04-24T07:44:23;14.69;82.97
66586;SHT30;53444;45.822;16.092;2023-04-24T07:46:50;14.68;83.17
66586;SHT30;53444;45.822;16.092;2023-04-24T07:49:17;14.69;83.63
66586;SHT30;53444;45.822;16.092;2023-04-24T07:51:44;14.71;84.63
66586;SHT30;53444;45.822;16.092;2023-04-24T07:54:11;14.86;83.95
66586;SHT30;53444;45.822;16.092;2023-04-24T07:56:40;14.95;84.57
66586;SHT30;53444;45.822;16.092;2023-04-24T07:59:08;15.11;84.05
66586;SHT30;53444;45.822;16.092;2023-04-24T08:01:35;15.23;84.32
66586;SHT30;53444;45.822;16.092;2023-04-24T08:04:02;15.33;83.03
66586;SHT30;53444;45.822;16.092;2023-04-24T08:06:29;15.43;83.08
66586;SHT30;53444;45.822;16.092;2023-04-24T08:08:57;15.50;83.72
66586;SHT30;53444;45.822;16.092;2023-04-24T08:11:24;15.51;84.59
66586;SHT30;53444;45.822;16.092;2023-04-24T08:13:52;15.69;84.38
66586;SHT30;53444;45.822;16.092;2023-04-24T08:16:20;15.79;86.27
66586;SHT30;53444;45.822;16.092;2023-04-24T08:18:46;15.78;87.15
66586;SHT30;53444;45.822;16.092;2023-04-24T08:21:13;16.01;86.15
66586;SHT30;53444;45.822;16.092;2023-04-24T08:23:42;16.10;86.78
66586;SHT30;53444;45.822;16.092;2023-04-24T08:26:09;16.34;85.57
66586;SHT30;53444;45.822;16.092;2023-04-24T08:28:36;16.50;85.34
66586;SHT30;53444;45.822;16.092;2023-04-24T08:31:04;16.53;85.51
66586;SHT30;53444;45.822;16.092;2023-04-24T08:33:31;16.28;85.00
66586;SHT30;53444;45.822;16.092;2023-04-24T08:36:00;16.46;85.36
66586;SHT30;53444;45.822;16.092;2023-04-24T08:38:26;16.61;85.11
66586;SHT30;53444;45.822;16.092;2023-04-24T08:40:53;16.61;84.10
66586;SHT30;53444;45.822;16.092;2023-04-24T08:43:21;16.56;83.28
66586;SHT30;53444;45.822;16.092;2023-04-24T08:45:48;16.53;82.90
66586;SHT30;53444;45.822;16.092;2023-04-24T08:48:17;16.53;82.40
66586;SHT30;53444;45.822;16.092;2023-04-24T08:50:44;16.45;82.84
66586;SHT30;53444;45.822;16.092;2023-04-24T08:53:11;16.42;83.34
66586;SHT30;53444;45.822;16.092;2023-04-24T08:55:38;16.34;84.36
66586;SHT30;53444;45.822;16.092;2023-04-24T08:58:05;16.37;83.56
66586;SHT30;53444;45.822;16.092;2023-04-24T09:00:33;16.37;83.00
66586;SHT30;53444;45.822;16.092;2023-04-24T09:03:00;16.28;83.29
66586;SHT30;53444;45.822;16.092;2023-04-24T09:05:29;16.16;83.37
66586;SHT30;53444;45.822;16.092;2023-04-24T09:07:56;16.22;83.75
66586;SHT30;53444;45.822;16.092;2023-04-24T09:10:25;16.19;84.42
66586;SHT30;53444;45.822;16.092;2023-04-24T09:12:52;16.23;83.90
66586;SHT30;53444;45.822;16.092;2023-04-24T09:15:19;16.29;82.58
66586;SHT30;53444;45.822;16.092;2023-04-24T09:17:47;16.42;82.62
66586;SHT30;53444;45.822;16.092;2023-04-24T09:20:13;16.40;83.61
66586;SHT30;53444;45.822;16.092;2023-04-24T09:22:42;16.28;82.16
66586;SHT30;53444;45.822;16.092;2023-04-24T09:25:09;16.46;82.17
66586;SHT30;53444;45.822;16.092;2023-04-24T09:27:41;16.50;82.93
66586;SHT30;53444;45.822;16.092;2023-04-24T09:30:08;16.59;82.39
66586;SHT30;53444;45.822;16.092;2023-04-24T09:32:35;16.50;81.29
66586;SHT30;53444;45.822;16.092;2023-04-24T09:35:07;16.55;81.99
66586;SHT30;53444;45.822;16.092;2023-04-24T09:37:38;16.76;81.40
66586;SHT30;53444;45.822;16.092;2023-04-24T09:40:11;16.92;82.47
66586;SHT30;53444;45.822;16.092;2023-04-24T09:42:38;17.03;81.81
66586;SHT30;53444;45.822;16.092;2023-04-24T09:45:08;17.15;81.79
66586;SHT30;53444;45.822;16.092;2023-04-24T09:47:36;17.01;81.64
66586;SHT30;53444;45.822;16.092;2023-04-24T09:50:09;17.08;80.90
66586;SHT30;53444;45.822;16.092;2023-04-24T09:52:39;17.08;82.06
66586;SHT30;53444;45.822;16.092;2023-04-24T09:55:15;17.20;80.08
66586;SHT30;53444;45.822;16.092;2023-04-24T09:57:47;16.95;81.07
66586;SHT30;53444;45.822;16.092;2023-04-24T10:00:18;17.14;79.69
66586;SHT30;53444;45.822;16.092;2023-04-24T10:02:49;17.18;79.57
66586;SHT30;53444;45.822;16.092;2023-04-24T10:05:16;17.34;79.88
66586;SHT30;53444;45.822;16.092;2023-04-24T10:07:43;17.32;77.74
66586;SHT30;53444;45.822;16.092;2023-04-24T10:10:12;17.80;77.32
66586;SHT30;53444;45.822;16.092;2023-04-24T10:12:44;17.80;75.98
66586;SHT30;53444;45.822;16.092;2023-04-24T10:15:12;17.73;75.53
66586;SHT30;53444;45.822;16.092;2023-04-24T10:17:40;17.59;73.74
66586;SHT30;53444;45.822;16.092;2023-04-24T10:20:07;17.56;75.91
66586;SHT30;53444;45.822;16.092;2023-04-24T10:22:35;17.20;76.18
66586;SHT30;53444;45.822;16.092;2023-04-24T10:25:07;17.01;76.06
66586;SHT30;53444;45.822;16.092;2023-04-24T10:27:37;16.70;75.75
66586;SHT30;53444;45.822;16.092;2023-04-24T10:30:05;16.70;76.70
66586;SHT30;53444;45.822;16.092;2023-04-24T10:32:33;16.70;76.85
66586;SHT30;53444;45.822;16.092;2023-04-24T10:34:59;16.52;78.34
66586;SHT30;53444;45.822;16.092;2023-04-24T10:37:26;16.20;79.20
66586;SHT30;53444;45.822;16.092;2023-04-24T10:39:53;15.88;79.64
66586;SHT30;53444;45.822;16.092;2023-04-24T10:42:21;15.57;81.56
66586;SHT30;53444;45.822;16.092;2023-04-24T10:44:50;15.59;82.44
66586;SHT30;53444;45.822;16.092;2023-04-24T10:47:17;15.68;83.50
66586;SHT30;53444;45.822;16.092;2023-04-24T10:49:43;15.59;83.12
66586;SHT30;53444;45.822;16.092;2023-04-24T10:52:10;15.48;85.48
66586;SHT30;53444;45.822;16.092;2023-04-24T10:54:42;15.24;84.87
66586;SHT30;53444;45.822;16.092;2023-04-24T10:57:25;15.43;85.43
66586;SHT30;53444;45.822;16.092;2023-04-24T11:00:18;15.54;85.83
66586;SHT30;53444;45.822;16.092;2023-04-24T11:02:46;15.67;85.90
66586;SHT30;53444;45.822;16.092;2023-04-24T11:05:16;15.67;86.00
66586;SHT30;53444;45.822;16.092;2023-04-24T11:08:13;15.75;84.20
66586;SHT30;53444;45.822;16.092;2023-04-24T11:10:43;15.88;81.45
66586;SHT30;53444;45.822;16.092;2023-04-24T11:13:10;15.89;83.32
66586;SHT30;53444;45.822;16.092;2023-04-24T11:15:42;15.85;83.75
66586;SHT30;53444;45.822;16.092;2023-04-24T11:18:17;15.88;84.51
66586;SHT30;53444;45.822;16.092;2023-04-24T11:20:44;15.85;84.91
66586;SHT30;53444;45.822;16.092;2023-04-24T11:23:12;15.78;84.63
66586;SHT30;53444;45.822;16.092;2023-04-24T11:25:39;15.64;83.59
66586;SHT30;53444;45.822;16.092;2023-04-24T11:28:05;15.45;84.00
66586;SHT30;53444;45.822;16.092;2023-04-24T11:30:33;15.27;83.98
66586;SHT30;53444;45.822;16.092;2023-04-24T11:33:05;15.24;83.49
66586;SHT30;53444;45.822;16.092;2023-04-24T11:35:35;15.28;84.94
66586;SHT30;53444;45.822;16.092;2023-04-24T11:38:07;15.41;87.12
66586;SHT30;53444;45.822;16.092;2023-04-24T11:40:34;15.48;84.26
66586;SHT30;53444;45.822;16.092;2023-04-24T11:43:00;15.37;84.40
66586;SHT30;53444;45.822;16.092;2023-04-24T11:45:29;15.38;85.32
66586;SHT30;53444;45.822;16.092;2023-04-24T11:47:57;15.28;86.35
66586;SHT30;53444;45.822;16.092;2023-04-24T11:50:26;15.19;84.88
66586;SHT30;53444;45.822;16.092;2023-04-24T11:52:55;15.27;85.14
66586;SHT30;53444;45.822;16.092;2023-04-24T11:55:26;15.14;85.78
66586;SHT30;53444;45.822;16.092;2023-04-24T11:57:54;15.16;87.13
66586;SHT30;53444;45.822;16.092;2023-04-24T12:00:24;15.14;85.56
66586;SHT30;53444;45.822;16.092;2023-04-24T12:02:51;15.07;86.33
66586;SHT30;53444;45.822;16.092;2023-04-24T12:05:22;15.27;86.63
66586;SHT30;53444;45.822;16.092;2023-04-24T12:07:50;15.22;86.90
66586;SHT30;53444;45.822;16.092;2023-04-24T12:10:20;15.36;87.70
66586;SHT30;53444;45.822;16.092;2023-04-24T12:12:47;15.41;87.24
66586;SHT30;53444;45.822;16.092;2023-04-24T12:15:16;15.23;88.42
66586;SHT30;53444;45.822;16.092;2023-04-24T12:17:43;15.36;87.76
66586;SHT30;53444;45.822;16.092;2023-04-24T12:20:12;15.48;87.94
66586;SHT30;53444;45.822;16.092;2023-04-24T12:22:45;15.37;88.05
66586;SHT30;53444;45.822;16.092;2023-04-24T12:25:14;15.23;87.94
66586;SHT30;53444;45.822;16.092;2023-04-24T12:27:41;15.23;87.44
66586;SHT30;53444;45.822;16.092;2023-04-24T12:30:12;15.23;87.54
66586;SHT30;53444;45.822;16.092;2023-04-24T12:32:41;15.20;87.80
66586;SHT30;53444;45.822;16.092;2023-04-24T12:35:09;15.17;87.89
66586;SHT30;53444;45.822;16.092;2023-04-24T12:37:35;15.41;87.54
66586;SHT30;53444;45.822;16.092;2023-04-24T12:40:04;15.79;87.60
66586;SHT30;53444;45.822;16.092;2023-04-24T12:42:34;16.13;86.76
66586;SHT30;53444;45.822;16.092;2023-04-24T12:45:03;16.59;86.31
66586;SHT30;53444;45.822;16.092;2023-04-24T12:47:31;16.91;84.31
66586;SHT30;53444;45.822;16.092;2023-04-24T12:49:58;17.31;83.13
66586;SHT30;53444;45.822;16.092;2023-04-24T12:52:25;17.52;82.87
66586;SHT30;53444;45.822;16.092;2023-04-24T12:54:53;17.39;82.86
66586;SHT30;53444;45.822;16.092;2023-04-24T12:57:20;17.22;84.09
66586;SHT30;53444;45.822;16.092;2023-04-24T12:59:49;17.06;82.42
66586;SHT30;53444;45.822;16.092;2023-04-24T13:02:16;17.07;82.67
66586;SHT30;53444;45.822;16.092;2023-04-24T13:04:44;16.98;82.17
66586;SHT30;53444;45.822;16.092;2023-04-24T13:07:11;16.87;81.67
66586;SHT30;53444;45.822;16.092;2023-04-24T13:09:38;16.57;82.63
66586;SHT30;53444;45.822;16.092;2023-04-24T13:12:05;16.47;83.00
66586;SHT30;53444;45.822;16.092;2023-04-24T13:14:37;16.46;84.30
66586;SHT30;53444;45.822;16.092;2023-04-24T13:17:06;16.40;84.61
66586;SHT30;53444;45.822;16.092;2023-04-24T13:19:38;16.40;83.80
66586;SHT30;53444;45.822;16.092;2023-04-24T13:22:07;16.34;84.11
66586;SHT30;53444;45.822;16.092;2023-04-24T13:24:37;16.28;84.68
66586;SHT30;53444;45.822;16.092;2023-04-24T13:27:05;16.13;85.02
66586;SHT30;53444;45.822;16.092;2023-04-24T13:29:32;16.05;85.60
66586;SHT30;53444;45.822;16.092;2023-04-24T13:31:59;15.99;85.69
66586;SHT30;53444;45.822;16.092;2023-04-24T13:34:27;15.95;86.28
66586;SHT30;53444;45.822;16.092;2023-04-24T13:36:56;15.82;85.73
66586;SHT30;53444;45.822;16.092;2023-04-24T13:39:24;15.74;86.90
66586;SHT30;53444;45.822;16.092;2023-04-24T13:41:51;15.38;88.38
66586;SHT30;53444;45.822;16.092;2023-04-24T13:44:19;15.07;88.84
66586;SHT30;53444;45.822;16.092;2023-04-24T13:46:47;15.06;90.35
66586;SHT30;53444;45.822;16.092;2023-04-24T13:49:14;14.83;91.09
66586;SHT30;53444;45.822;16.092;2023-04-24T13:51:42;14.68;91.90
66586;SHT30;53444;45.822;16.092;2023-04-24T13:54:09;14.75;92.50
66586;SHT30;53444;45.822;16.092;2023-04-24T13:56:36;14.69;91.36
66586;SHT30;53444;45.822;16.092;2023-04-24T13:59:03;14.75;90.93
66586;SHT30;53444;45.822;16.092;2023-04-24T14:01:29;14.66;92.47
66586;SHT30;53444;45.822;16.092;2023-04-24T14:03:56;14.07;92.55
66586;SHT30;53444;45.822;16.092;2023-04-24T14:06:23;13.95;92.89
66586;SHT30;53444;45.822;16.092;2023-04-24T14:08:51;13.91;92.46
66586;SHT30;53444;45.822;16.092;2023-04-24T14:11:18;13.74;92.18
66586;SHT30;53444;45.822;16.092;2023-04-24T14:13:45;13.83;92.61
66586;SHT30;53444;45.822;16.092;2023-04-24T14:16:12;13.69;93.14
66586;SHT30;53444;45.822;16.092;2023-04-24T14:18:39;13.62;92.97
66586;SHT30;53444;45.822;16.092;2023-04-24T14:21:06;13.63;92.97
66586;SHT30;53444;45.822;16.092;2023-04-24T14:23:33;13.63;93.85
66586;SHT30;53444;45.822;16.092;2023-04-24T14:26:01;13.83;93.61
66586;SHT30;53444;45.822;16.092;2023-04-24T14:28:27;13.94;93.30
66586;SHT30;53444;45.822;16.092;2023-04-24T14:30:54;13.91;93.19
66586;SHT30;53444;45.822;16.092;2023-04-24T14:33:21;14.03;93.41
66586;SHT30;53444;45.822;16.092;2023-04-24T14:35:47;13.98;93.94
66586;SHT30;53444;45.822;16.092;2023-04-24T14:38:14;14.00;93.32
66586;SHT30;53444;45.822;16.092;2023-04-24T14:40:41;13.95;93.45
66586;SHT30;53444;45.822;16.092;2023-04-24T14:43:10;13.91;93.35
66586;SHT30;53444;45.822;16.092;2023-04-24T14:45:36;13.97;93.27
66586;SHT30;53444;45.822;16.092;2023-04-24T14:48:03;13.97;93.23
66586;SHT30;53444;45.822;16.092;2023-04-24T14:50:30;14.00;93.42
66586;SHT30;53444;45.822;16.092;2023-04-24T14:52:57;13.93;93.46
66586;SHT30;53444;45.822;16.092;2023-04-24T14:55:23;13.97;93.11
66586;SHT30;53444;45.822;16.092;2023-04-24T14:57:51;14.05;92.88
66586;SHT30;53444;45.822;16.092;2023-04-24T15:00:21;14.07;93.04
66586;SHT30;53444;45.822;16.092;2023-04-24T15:02:49;14.10;92.90
66586;SHT30;53444;45.822;16.092;2023-04-24T15:05:16;14.08;92.33
66586;SHT30;53444;45.822;16.092;2023-04-24T15:07:42;14.10;92.47
66586;SHT30;53444;45.822;16.092;2023-04-24T15:10:10;14.08;92.04
66586;SHT30;53444;45.822;16.092;2023-04-24T15:12:37;14.01;92.15
66586;SHT30;53444;45.822;16.092;2023-04-24T15:15:05;13.97;92.19
66586;SHT30;53444;45.822;16.092;2023-04-24T15:17:33;13.98;92.64
66586;SHT30;53444;45.822;16.092;2023-04-24T15:20:00;14.00;92.78
66586;SHT30;53444;45.822;16.092;2023-04-24T15:22:28;13.88;93.25
66586;SHT30;53444;45.822;16.092;2023-04-24T15:24:54;13.95;93.38
66586;SHT30;53444;45.822;16.092;2023-04-24T15:27:21;13.91;93.29
66586;SHT30;53444;45.822;16.092;2023-04-24T15:29:48;13.84;93.18
66586;SHT30;53444;45.822;16.092;2023-04-24T15:32:14;13.85;92.24
66586;SHT30;53444;45.822;16.092;2023-04-24T15:34:42;13.78;92.42
66586;SHT30;53444;45.822;16.092;2023-04-24T15:37:09;13.83;92.32